Terminal Aerodrome Forecast
Issued by NWS

Home | Current Version | Previous Version | Graphics & Text | Print | Product List | Glossary On
Versions: 1 2 3 4 5 6 7 8 9 10 11 12 13 14 15 16 17 18 19 20 21 22 23 24 25
849
FTUS42 KMHX 221140
TAFPGV
TAF
KPGV 221140Z 2212/2312 VRB04KT P6SM SCT015 BKN035
     FM221600 34007KT P6SM VCSH BKN035
     FM221800 34008KT P6SM VCSH SCT030 BKN040
     FM222300 36007KT P6SM BKN035
     FM230400 36005KT P6SM BKN015
     FM230700 34005KT P6SM BKN009
      AMD LTD TO CLD VIS AND WIND=

USA.gov is the U.S. government's official web portal to all federal, state and local government web resources and services.